Time;durP1;ratioP1;P1;durP2;ratioP2;P2;SDS_P1;SDS_P2;PMS_P1;PMS_P2;Temp;Humidity;BMP_temperature;BMP_pressure;BME280_temperature;BME280_humidity;BME280_pressure;Samples;Min_cycle;Max_cycle;Signal;HPM_P1;HPM_P2
2023/12/14 00:00:49;;;;;;;20.00;8.63;;;;;;;5.97;100.00;100768.06;5011457;28;20034;-72
2023/12/14 00:03:15;;;;;;;20.20;8.93;;;;;;;5.96;100.00;100763.78;5035231;28;20030;-72
2023/12/14 00:05:40;;;;;;;19.25;7.35;;;;;;;5.87;100.00;100776.19;5029246;28;20946;-73
2023/12/14 00:08:06;;;;;;;25.20;10.77;;;;;;;5.91;100.00;100781.94;5029075;28;20029;-72
2023/12/14 00:10:31;;;;;;;21.90;8.30;;;;;;;5.92;100.00;100789.72;5024936;28;20082;-73
2023/12/14 00:12:56;;;;;;;23.27;9.57;;;;;;;5.91;100.00;100803.94;5044337;28;20029;-72
2023/12/14 00:15:22;;;;;;;20.10;9.45;;;;;;;5.79;100.00;100784.13;5035239;28;20029;-72
2023/12/14 00:17:47;;;;;;;22.48;7.53;;;;;;;5.89;100.00;100807.75;5036656;28;20421;-72
2023/12/14 00:20:14;;;;;;;20.15;8.35;;;;;;;5.86;100.00;100810.75;5030212;28;20033;-72
2023/12/14 00:22:39;;;;;;;22.40;10.50;;;;;;;5.87;100.00;100817.69;5017294;28;20646;-72
2023/12/14 00:25:05;;;;;;;22.38;10.63;;;;;;;5.89;100.00;100832.44;5011146;28;20071;-73
2023/12/14 00:27:30;;;;;;;23.25;10.00;;;;;;;5.85;100.00;100838.22;5031005;28;20033;-73
2023/12/14 00:29:56;;;;;;;26.27;13.25;;;;;;;5.83;100.00;100840.19;5047945;28;20044;-73
2023/12/14 00:32:21;;;;;;;22.42;8.73;;;;;;;5.80;100.00;100849.28;5044240;28;20037;-73
2023/12/14 00:34:46;;;;;;;21.15;8.90;;;;;;;5.79;100.00;100857.38;5039431;28;20365;-72
2023/12/14 00:37:11;;;;;;;21.05;8.20;;;;;;;5.74;100.00;100855.25;5029955;28;20182;-72
2023/12/14 00:39:37;;;;;;;20.92;8.98;;;;;;;5.74;100.00;100868.47;5047855;28;20083;-73
2023/12/14 00:42:03;;;;;;;18.80;7.65;;;;;;;5.74;100.00;100871.13;5029822;28;20543;-73
2023/12/14 00:44:28;;;;;;;20.33;9.35;;;;;;;5.73;100.00;100885.31;5029967;28;20037;-72
2023/12/14 00:46:54;;;;;;;19.85;7.38;;;;;;;5.71;100.00;100888.16;5048234;28;20965;-72
2023/12/14 00:49:19;;;;;;;17.70;8.52;;;;;;;5.70;100.00;100898.91;5051719;28;20119;-72
2023/12/14 00:51:44;;;;;;;21.10;8.48;;;;;;;5.67;100.00;100899.22;5051555;28;20037;-72
2023/12/14 00:54:10;;;;;;;19.48;7.93;;;;;;;5.68;100.00;100900.88;5016778;28;20066;-72
2023/12/14 00:56:35;;;;;;;21.48;9.07;;;;;;;5.66;100.00;100908.16;5051278;28;20036;-72
2023/12/14 00:59:01;;;;;;;21.75;7.85;;;;;;;5.63;100.00;100916.41;5051100;28;20040;-72
2023/12/14 01:01:26;;;;;;;20.95;8.18;;;;;;;5.60;100.00;100908.78;5051524;28;20029;-73
2023/12/14 01:03:51;;;;;;;23.02;8.57;;;;;;;5.62;100.00;100926.16;5047914;28;20072;-72
2023/12/14 01:06:17;;;;;;;19.17;7.88;;;;;;;5.61;100.00;100921.06;5051351;28;20499;-72
2023/12/14 01:08:42;;;;;;;21.25;8.95;;;;;;;5.58;100.00;100916.91;5051397;28;20941;-72
2023/12/14 01:11:07;;;;;;;20.08;9.55;;;;;;;5.56;100.00;100912.78;5021841;28;20077;-73
2023/12/14 01:13:33;;;;;;;22.38;11.13;;;;;;;5.54;100.00;100928.78;5036550;28;20029;-72
2023/12/14 01:15:58;;;;;;;21.30;8.45;;;;;;;5.53;100.00;100927.16;5051208;28;20128;-72
2023/12/14 01:18:24;;;;;;;20.20;8.00;;;;;;;5.49;100.00;100920.50;5051331;28;20033;-72
2023/12/14 01:20:50;;;;;;;22.50;8.25;;;;;;;5.49;100.00;100925.81;5031792;28;20076;-72
2023/12/14 01:23:15;;;;;;;18.00;8.02;;;;;;;5.49;100.00;100931.91;5031566;28;20582;-72
2023/12/14 01:25:41;;;;;;;22.52;9.05;;;;;;;5.46;100.00;100934.88;5032045;28;20033;-72
2023/12/14 01:28:06;;;;;;;19.88;8.55;;;;;;;5.37;100.00;100937.66;5042448;28;20060;-72
2023/12/14 01:30:32;;;;;;;17.23;6.90;;;;;;;5.41;100.00;100946.94;5050806;28;20037;-72
2023/12/14 01:32:57;;;;;;;18.95;7.13;;;;;;;5.42;100.00;100961.81;5033115;28;20044;-72
2023/12/14 01:35:22;;;;;;;18.70;8.48;;;;;;;5.36;100.00;100959.81;5037748;28;20044;-73
2023/12/14 01:37:48;;;;;;;18.95;7.55;;;;;;;5.39;100.00;100975.38;5031905;28;20445;-72
2023/12/14 01:40:13;;;;;;;22.42;10.52;;;;;;;5.37;100.00;100977.34;5031554;28;20146;-72
2023/12/14 01:42:38;;;;;;;20.60;8.35;;;;;;;5.37;100.00;100979.97;5031663;28;20034;-72
2023/12/14 01:45:05;;;;;;;16.85;6.13;;;;;;;5.34;100.00;100975.84;5013863;28;20029;-72
2023/12/14 01:47:30;;;;;;;21.55;9.70;;;;;;;5.30;100.00;100976.34;5013880;28;20083;-72
2023/12/14 01:49:56;;;;;;;20.95;8.45;;;;;;;5.35;100.00;100989.91;5031160;28;20034;-73
2023/12/14 01:52:21;;;;;;;19.77;8.23;;;;;;;5.34;100.00;100993.53;5013682;28;20069;-72
2023/12/14 01:54:46;;;;;;;18.60;6.88;;;;;;;5.28;100.00;100995.81;5031307;28;20034;-72
2023/12/14 01:57:12;;;;;;;20.55;7.90;;;;;;;5.30;100.00;101008.06;5031210;28;20037;-72
2023/12/14 01:59:37;;;;;;;32.53;12.88;;;;;;;5.23;100.00;101008.69;5020264;28;20024;-72
2023/12/14 02:02:04;;;;;;;22.88;10.13;;;;;;;5.27;100.00;101027.72;5040272;28;20025;-72
2023/12/14 02:04:30;;;;;;;25.38;9.23;;;;;;;5.24;100.00;101025.41;5038181;28;20053;-72
2023/12/14 02:06:55;;;;;;;21.55;9.43;;;;;;;5.21;100.00;101039.75;5032178;28;20122;-72
2023/12/14 02:09:21;;;;;;;23.40;9.48;;;;;;;5.19;100.00;101039.09;5049941;28;20040;-72
2023/12/14 02:11:46;;;;;;;24.95;10.48;;;;;;;5.17;100.00;101035.75;5050135;28;20033;-72
2023/12/14 02:14:12;;;;;;;22.27;10.73;;;;;;;5.12;100.00;101031.94;5049930;28;20028;-72
2023/12/14 02:16:40;;;;;;;25.13;11.75;;;;;;;5.11;100.00;101030.25;5049985;28;20050;-72
2023/12/14 02:19:06;;;;;;;23.10;8.90;;;;;;;5.14;100.00;101036.06;5049805;28;20123;-72
2023/12/14 02:21:31;;;;;;;25.05;10.00;;;;;;;5.09;100.00;101034.91;5049899;28;20628;-72
2023/12/14 02:23:57;;;;;;;24.33;10.48;;;;;;;5.11;100.00;101046.97;5049757;28;20061;-72
2023/12/14 02:26:22;;;;;;;22.88;9.27;;;;;;;5.12;100.00;101056.53;5049816;28;20408;-72
2023/12/14 02:28:47;;;;;;;19.98;8.85;;;;;;;5.12;100.00;101068.94;5049821;28;20033;-72
2023/12/14 02:31:13;;;;;;;22.17;9.75;;;;;;;5.05;100.00;101074.00;5049809;28;20159;-72
2023/12/14 02:33:38;;;;;;;23.23;9.68;;;;;;;5.00;100.00;101074.50;5031766;28;20495;-72
2023/12/14 02:36:04;;;;;;;26.02;10.07;;;;;;;4.99;100.00;101080.75;5049827;28;20495;-72
2023/12/14 02:38:30;;;;;;;26.27;12.05;;;;;;;5.00;100.00;101085.06;5049475;28;20509;-72
2023/12/14 02:40:55;;;;;;;27.42;13.35;;;;;;;4.98;100.00;101075.63;5039551;28;20101;-72
2023/12/14 02:43:20;;;;;;;26.00;9.80;;;;;;;5.00;100.00;101078.94;5030229;28;20021;-72
2023/12/14 02:45:46;;;;;;;24.98;10.80;;;;;;;4.97;100.00;101085.34;5038736;28;20472;-72
2023/12/14 02:48:12;;;;;;;24.95;9.13;;;;;;;4.95;100.00;101092.63;5049326;28;20039;-72
2023/12/14 02:50:37;;;;;;;23.63;9.57;;;;;;;4.94;100.00;101092.78;5034073;28;20042;-72
2023/12/14 02:53:02;;;;;;;29.15;10.65;;;;;;;4.78;100.00;101075.81;5012517;28;20048;-72
2023/12/14 02:55:28;;;;;;;26.60;10.65;;;;;;;4.90;100.00;101094.91;5030144;28;20026;-72
2023/12/14 02:57:53;;;;;;;24.00;10.98;;;;;;;4.94;100.00;101113.91;5040826;28;20120;-72
2023/12/14 03:00:19;;;;;;;24.45;10.38;;;;;;;4.91;100.00;101112.41;5049093;28;20056;-72
2023/12/14 03:02:44;;;;;;;23.35;9.23;;;;;;;4.86;100.00;101111.22;5049295;28;20040;-72
2023/12/14 03:05:10;;;;;;;25.02;11.80;;;;;;;4.87;100.00;101124.25;5040843;28;20017;-72
2023/12/14 03:07:35;;;;;;;22.95;10.15;;;;;;;4.87;100.00;101129.53;5049032;28;20029;-72
2023/12/14 03:10:02;;;;;;;24.17;10.90;;;;;;;4.88;100.00;101125.09;5048585;28;20029;-72
2023/12/14 03:12:27;;;;;;;24.30;11.13;;;;;;;4.85;100.00;101131.53;5048885;28;20991;-72
2023/12/14 03:14:53;;;;;;;24.20;10.43;;;;;;;4.59;100.00;101092.66;5030340;28;20163;-72
2023/12/14 03:17:18;;;;;;;23.13;11.23;;;;;;;4.67;100.00;101106.94;5043309;28;20152;-72
2023/12/14 03:19:43;;;;;;;27.40;10.45;;;;;;;4.92;100.00;101150.22;5030494;28;20833;-72
2023/12/14 03:22:09;;;;;;;18.15;6.88;;;;;;;4.91;100.00;101148.56;5011814;28;20061;-72
2023/12/14 03:24:37;;;;;;;19.27;8.02;;;;;;;4.90;100.00;101153.03;5029715;28;20033;-72
2023/12/14 03:27:04;;;;;;;24.40;10.23;;;;;;;4.88;100.00;101152.34;5044816;28;20032;-72
2023/12/14 03:29:29;;;;;;;20.55;9.98;;;;;;;4.89;100.00;101158.47;5030518;28;20040;-72
2023/12/14 03:31:58;;;;;;;22.92;8.05;;;;;;;4.89;100.00;101161.09;5048298;28;20032;-72
2023/12/14 03:34:24;;;;;;;20.05;8.90;;;;;;;4.90;100.00;101158.31;5048516;28;20368;-72
2023/12/14 03:36:50;;;;;;;20.33;9.27;;;;;;;4.89;100.00;101150.53;5048444;28;20036;-72
2023/12/14 03:39:18;;;;;;;19.75;8.38;;;;;;;4.83;100.00;101146.69;5030731;28;20032;-72
2023/12/14 03:41:44;;;;;;;20.58;9.35;;;;;;;4.87;100.00;101155.13;5048376;28;20029;-72
2023/12/14 03:44:10;;;;;;;23.20;10.63;;;;;;;4.82;100.00;101155.59;5036680;28;20040;-72
2023/12/14 03:46:35;;;;;;;23.85;9.45;;;;;;;4.84;100.00;101159.75;5041902;28;20087;-72
2023/12/14 03:49:01;;;;;;;21.80;9.88;;;;;;;4.84;100.00;101167.66;5048538;28;20034;-72
2023/12/14 03:51:26;;;;;;;21.58;8.52;;;;;;;4.84;100.00;101170.31;5048187;28;20037;-72
2023/12/14 03:53:52;;;;;;;26.20;11.25;;;;;;;4.82;100.00;101174.94;5022457;28;20028;-72
2023/12/14 03:56:17;;;;;;;22.75;9.95;;;;;;;4.84;100.00;101186.16;5011192;28;20025;-72
2023/12/14 03:58:43;;;;;;;22.30;9.73;;;;;;;4.82;100.00;101182.88;5029476;28;20124;-70
2023/12/14 04:01:14;;;;;;;22.60;9.90;;;;;;;4.81;100.00;101189.13;5040574;28;20049;-71
2023/12/14 04:03:39;;;;;;;;;;;;;;;4.84;100.00;101190.63;5036249;28;20033;-70
2023/12/14 04:06:05;;;;;;;24.43;11.40;;;;;;;4.79;100.00;101190.25;5034591;28;19920;-70
2023/12/14 04:08:30;;;;;;;25.90;12.25;;;;;;;4.77;100.00;101193.06;5048456;28;20029;-70
2023/12/14 04:10:56;;;;;;;24.42;10.07;;;;;;;4.78;100.00;101181.50;5044329;28;20135;-70
2023/12/14 04:13:21;;;;;;;25.48;10.35;;;;;;;4.80;100.00;101200.69;5039900;28;20043;-70
2023/12/14 04:15:46;;;;;;;20.15;8.18;;;;;;;4.79;100.00;101196.38;5037633;28;20025;-70
2023/12/14 04:18:12;;;;;;;21.35;10.75;;;;;;;4.80;100.00;101200.69;5039589;28;20122;-70
2023/12/14 04:20:37;;;;;;;21.88;9.20;;;;;;;4.81;100.00;101197.03;5019404;28;20051;-70
2023/12/14 04:23:03;;;;;;;24.77;9.00;;;;;;;4.80;100.00;101199.84;5033510;28;20068;-70
2023/12/14 04:25:28;;;;;;;22.05;8.82;;;;;;;4.79;100.00;101201.66;5040845;28;20029;-70
2023/12/14 04:27:53;;;;;;;21.55;9.25;;;;;;;4.76;100.00;101203.75;5040695;28;20507;-70
2023/12/14 04:30:19;;;;;;;19.13;7.97;;;;;;;4.75;100.00;101212.69;5039506;28;20116;-70
2023/12/14 04:32:46;;;;;;;20.17;8.85;;;;;;;4.67;100.00;101205.50;5042829;28;20115;-70
2023/12/14 04:35:11;;;;;;;18.75;7.95;;;;;;;4.71;100.00;101221.88;5043780;28;20036;-70
2023/12/14 04:37:37;;;;;;;20.35;7.47;;;;;;;4.73;100.00;101222.56;5029543;28;20033;-70
2023/12/14 04:40:03;;;;;;;22.52;8.43;;;;;;;4.64;100.00;101215.50;5043249;28;20131;-70
2023/12/14 04:42:28;;;;;;;21.75;8.23;;;;;;;4.74;100.00;101245.34;5048710;28;20115;-70
2023/12/14 04:44:53;;;;;;;21.55;8.70;;;;;;;4.66;100.00;101238.16;5037461;28;20103;-70
2023/12/14 04:47:19;;;;;;;19.50;8.07;;;;;;;4.73;100.00;101251.63;5040082;28;20029;-70
2023/12/14 04:49:44;;;;;;;21.15;8.88;;;;;;;4.73;100.00;101267.47;5043202;28;20045;-70
2023/12/14 04:52:09;;;;;;;18.52;7.93;;;;;;;4.73;100.00;101264.84;5036594;28;20040;-70
2023/12/14 04:54:37;;;;;;;19.58;7.97;;;;;;;4.74;100.00;101266.47;5045089;28;20095;-70
2023/12/14 04:57:03;;;;;;;20.85;9.40;;;;;;;4.77;100.00;101271.50;5048528;28;20112;-70
2023/12/14 04:59:28;;;;;;;15.70;6.68;;;;;;;4.76;100.00;101273.28;5041932;28;20115;-70
2023/12/14 05:01:54;;;;;;;19.65;9.95;;;;;;;4.76;100.00;101275.09;5040751;28;20079;-70
2023/12/14 05:04:20;;;;;;;20.50;8.35;;;;;;;4.77;100.00;101284.72;5032413;28;20033;-72
2023/12/14 05:06:45;;;;;;;19.48;7.47;;;;;;;4.76;100.00;101291.78;5032793;28;21017;-72
2023/12/14 05:09:11;;;;;;;16.95;6.97;;;;;;;4.73;100.00;101300.00;5047539;28;20102;-72
2023/12/14 05:11:37;;;;;;;17.75;8.38;;;;;;;4.77;100.00;101301.38;4998026;28;20107;-72
2023/12/14 05:14:03;;;;;;;18.92;8.32;;;;;;;4.73;100.00;101305.28;5032161;28;20472;-72
2023/12/14 05:16:28;;;;;;;18.35;7.72;;;;;;;4.72;100.00;101308.94;5031977;28;20033;-72
2023/12/14 05:18:53;;;;;;;20.13;8.00;;;;;;;4.73;100.00;101307.09;5032075;28;20068;-72
2023/12/14 05:21:19;;;;;;;19.35;7.43;;;;;;;4.70;100.00;101324.09;5032358;28;20033;-72
2023/12/14 05:23:45;;;;;;;19.70;9.43;;;;;;;4.73;100.00;101333.53;5014209;28;20057;-72
2023/12/14 05:26:10;;;;;;;19.80;8.00;;;;;;;4.71;100.00;101336.31;5040877;28;20029;-72
2023/12/14 05:28:36;;;;;;;15.20;6.72;;;;;;;4.73;100.00;101342.28;5050940;28;20119;-72
2023/12/14 05:31:02;;;;;;;18.80;8.13;;;;;;;4.70;100.00;101339.94;5039712;28;20077;-72
2023/12/14 05:33:28;;;;;;;19.40;9.52;;;;;;;4.71;100.00;101348.69;5031732;28;20396;-72
2023/12/14 05:35:53;;;;;;;18.50;7.30;;;;;;;4.76;100.00;101355.19;5037431;28;20034;-72
2023/12/14 05:38:19;;;;;;;20.15;7.88;;;;;;;4.72;100.00;101351.19;5031582;28;20107;-72
2023/12/14 05:40:44;;;;;;;22.33;7.82;;;;;;;4.76;100.00;101370.22;5031644;28;20045;-72
2023/12/14 05:43:10;;;;;;;19.90;9.13;;;;;;;4.75;100.00;101366.75;5049660;28;20021;-72
2023/12/14 05:45:35;;;;;;;17.88;8.65;;;;;;;4.78;100.00;101374.38;5050654;28;20032;-72
2023/12/14 05:48:01;;;;;;;19.45;8.60;;;;;;;4.76;100.00;101378.97;5033538;28;20033;-72
2023/12/14 05:50:27;;;;;;;20.33;8.07;;;;;;;4.78;100.00;101387.59;5030884;28;20099;-72
2023/12/14 05:52:52;;;;;;;19.48;8.10;;;;;;;4.70;100.00;101379.56;5013689;28;20033;-72
2023/12/14 05:55:21;;;;;;;21.55;10.23;;;;;;;4.78;100.00;101394.69;5031115;28;20042;-72
2023/12/14 05:57:47;;;;;;;20.98;8.40;;;;;;;4.75;100.00;101409.03;5031207;28;20080;-72
2023/12/14 06:00:13;;;;;;;17.80;8.65;;;;;;;4.78;100.00;101419.31;5031264;28;20029;-72
2023/12/14 06:02:38;;;;;;;21.35;9.27;;;;;;;4.76;100.00;101425.72;5031166;28;20044;-71
2023/12/14 06:05:06;;;;;;;19.95;7.60;;;;;;;4.79;100.00;101436.84;5038838;28;20070;-72
2023/12/14 06:07:31;;;;;;;19.65;8.25;;;;;;;4.77;100.00;101435.31;5050044;28;20024;-72
2023/12/14 06:09:56;;;;;;;21.08;9.68;;;;;;;4.81;100.00;101441.97;5050024;28;20045;-72
2023/12/14 06:12:22;;;;;;;21.27;8.80;;;;;;;4.82;100.00;101440.97;5049686;28;20124;-72
2023/12/14 06:14:47;;;;;;;19.85;8.23;;;;;;;4.83;100.00;101440.03;5049167;28;20488;-72
2023/12/14 06:17:12;;;;;;;21.13;8.95;;;;;;;4.83;100.00;101451.41;5012965;28;20499;-72
2023/12/14 06:19:38;;;;;;;22.23;7.88;;;;;;;4.84;100.00;101450.44;5034678;28;20743;-72
2023/12/14 06:22:03;;;;;;;20.60;9.35;;;;;;;4.83;100.00;101447.94;5048623;28;20149;-72
2023/12/14 06:24:29;;;;;;;21.25;9.45;;;;;;;4.81;100.00;101445.44;5030700;28;20108;-72
2023/12/14 06:26:54;;;;;;;19.48;8.05;;;;;;;4.80;100.00;101441.16;5012842;28;20089;-74
2023/12/14 06:29:20;;;;;;;20.75;7.78;;;;;;;4.80;100.00;101450.88;5030579;28;20484;-72
2023/12/14 06:31:46;;;;;;;20.13;8.70;;;;;;;4.81;100.00;101456.00;5012728;28;20022;-72
2023/12/14 06:34:11;;;;;;;19.95;8.45;;;;;;;4.78;100.00;101458.13;5030407;28;20040;-72
2023/12/14 06:36:42;;;;;;;19.63;8.20;;;;;;;4.77;100.00;101467.88;5030464;28;20123;-72
2023/12/14 06:39:07;;;;;;;20.23;10.18;;;;;;;4.79;100.00;101473.00;5031160;28;20025;-72
2023/12/14 06:41:33;;;;;;;21.27;8.32;;;;;;;4.80;100.00;101482.59;5049502;28;20033;-72
2023/12/14 06:43:58;;;;;;;18.70;7.82;;;;;;;4.79;100.00;101483.56;5036775;28;20035;-72
2023/12/14 06:46:23;;;;;;;18.67;7.88;;;;;;;4.79;100.00;101491.47;5040036;28;20048;-72
2023/12/14 06:48:49;;;;;;;22.08;7.93;;;;;;;4.76;100.00;101492.59;5049241;28;20048;-72
2023/12/14 06:51:15;;;;;;;19.02;7.35;;;;;;;4.76;100.00;101483.84;5048849;28;20064;-72
2023/12/14 06:53:42;;;;;;;20.63;9.05;;;;;;;4.75;100.00;101487.47;5044745;28;20055;-72
2023/12/14 06:56:10;;;;;;;23.42;8.95;;;;;;;4.72;100.00;101493.06;5029843;28;20026;-72
2023/12/14 06:58:43;;;;;;;19.67;8.32;;;;;;;4.72;100.00;101495.69;5031053;28;20771;-72
2023/12/14 07:01:17;;;;;;;17.92;7.43;;;;;;;4.68;100.00;101502.22;5049123;28;20423;-72
2023/12/14 07:03:44;;;;;;;19.63;8.63;;;;;;;4.72;100.00;101515.03;5049041;28;20037;-72
2023/12/14 07:06:18;;;;;;;19.38;8.75;;;;;;;4.66;100.00;101497.06;5049010;28;20037;-72
2023/12/14 07:08:44;;;;;;;20.73;7.50;;;;;;;4.72;100.00;101519.47;5048709;28;20090;-72
2023/12/14 07:11:10;;;;;;;20.55;10.02;;;;;;;4.71;100.00;101518.63;5048910;28;20029;-72
2023/12/14 07:13:38;;;;;;;25.92;9.65;;;;;;;4.67;100.00;101517.25;5029727;28;20107;-72
2023/12/14 07:16:07;;;;;;;20.45;8.07;;;;;;;4.71;100.00;101534.47;5029798;28;20083;-72
2023/12/14 07:18:33;;;;;;;20.23;7.97;;;;;;;4.70;100.00;101534.63;5037751;28;20063;-72
2023/12/14 07:20:58;;;;;;;21.90;9.20;;;;;;;4.71;100.00;101541.56;5048636;28;20064;-72
2023/12/14 07:23:24;;;;;;;19.50;8.02;;;;;;;4.65;100.00;101535.03;5048604;28;20049;-72
2023/12/14 07:25:49;;;;;;;18.92;8.18;;;;;;;4.70;100.00;101553.13;5028164;28;20041;-72
2023/12/14 07:28:14;;;;;;;25.83;9.30;;;;;;;4.70;100.00;101553.97;5031581;28;20049;-72
2023/12/14 07:30:40;;;;;;;20.65;8.25;;;;;;;4.67;100.00;101559.53;5015574;28;20041;-74
2023/12/14 07:33:05;;;;;;;21.10;9.50;;;;;;;4.71;100.00;101570.63;5037443;28;20044;-71
2023/12/14 07:35:30;;;;;;;20.88;8.05;;;;;;;4.71;100.00;101575.91;5017469;28;20041;-71
2023/12/14 07:37:56;;;;;;;19.17;9.05;;;;;;;4.70;100.00;101582.19;5039519;28;20033;-71
2023/12/14 07:40:21;;;;;;;18.73;8.55;;;;;;;4.69;100.00;101585.78;5048196;28;20048;-71
2023/12/14 07:42:46;;;;;;;19.83;7.90;;;;;;;4.68;100.00;101595.53;5048431;28;20060;-70
2023/12/14 07:45:12;;;;;;;18.05;6.90;;;;;;;4.69;100.00;101589.28;5048363;28;20495;-71
2023/12/14 07:47:37;;;;;;;21.88;10.02;;;;;;;4.71;100.00;101592.59;5048099;28;20063;-71
2023/12/14 07:50:03;;;;;;;18.67;7.63;;;;;;;4.70;100.00;101598.03;5046973;28;20037;-71
2023/12/14 07:52:29;;;;;;;17.63;7.55;;;;;;;4.69;100.00;101599.00;5032389;28;20033;-70
2023/12/14 07:54:54;;;;;;;21.35;9.10;;;;;;;4.67;100.00;101598.34;5029094;28;20032;-70
2023/12/14 07:57:19;;;;;;;19.30;6.88;;;;;;;4.67;100.00;101606.25;5034592;28;20143;-69
2023/12/14 07:59:46;;;;;;;18.83;7.03;;;;;;;4.65;100.00;101611.66;5047204;28;20076;-69
2023/12/14 08:02:11;;;;;;;19.08;8.02;;;;;;;4.65;100.00;101613.47;5047002;28;20057;-70
2023/12/14 08:04:37;;;;;;;15.93;7.53;;;;;;;4.65;100.00;101621.41;5047297;28;20119;-70
2023/12/14 08:07:02;;;;;;;17.83;6.95;;;;;;;4.63;100.00;101623.34;5048068;28;20021;-70
2023/12/14 08:09:28;;;;;;;15.32;6.68;;;;;;;4.65;100.00;101637.25;5013640;28;20093;-70
2023/12/14 08:11:53;;;;;;;16.70;6.97;;;;;;;4.66;100.00;101636.28;5047118;28;20041;-70
2023/12/14 08:14:18;;;;;;;19.02;7.28;;;;;;;4.66;100.00;101645.03;5046857;28;20032;-70
2023/12/14 08:16:44;;;;;;;17.73;6.88;;;;;;;4.66;100.00;101633.63;5029215;28;20187;-70
2023/12/14 08:19:09;;;;;;;17.58;6.90;;;;;;;4.65;100.00;101642.53;5047426;28;20101;-70
2023/12/14 08:21:34;;;;;;;17.40;8.27;;;;;;;4.64;100.00;101652.28;5047361;28;20037;-70
2023/12/14 08:24:00;;;;;;;18.48;6.75;;;;;;;4.64;100.00;101657.56;5047574;28;20059;-70
2023/12/14 08:26:25;;;;;;;13.80;5.65;;;;;;;4.63;100.00;101655.88;5047597;28;20484;-70
2023/12/14 08:28:50;;;;;;;16.77;5.78;;;;;;;4.62;100.00;101667.44;5048049;28;20025;-70
2023/12/14 08:31:15;;;;;;;14.23;5.72;;;;;;;4.63;100.00;101662.97;5021425;28;20119;-70
2023/12/14 08:33:42;;;;;;;19.65;8.75;;;;;;;4.60;100.00;101656.16;5028419;28;20432;-70
2023/12/14 08:36:08;;;;;;;19.25;6.43;;;;;;;4.64;100.00;101668.13;5026503;28;20029;-71
2023/12/14 08:38:33;;;;;;;16.50;6.85;;;;;;;4.66;100.00;101671.44;5033719;28;20460;-71
2023/12/14 08:40:59;;;;;;;18.85;7.28;;;;;;;4.66;100.00;101686.47;5044408;28;20087;-72
2023/12/14 08:43:24;;;;;;;16.27;6.20;;;;;;;4.63;100.00;101684.94;5038132;28;20033;-71
2023/12/14 08:45:49;;;;;;;17.90;6.57;;;;;;;4.58;100.00;101679.22;5008441;28;20033;-71
2023/12/14 08:48:15;;;;;;;18.08;6.97;;;;;;;4.63;100.00;101703.44;5008639;28;20060;-70
2023/12/14 08:50:40;;;;;;;13.20;6.07;;;;;;;4.63;100.00;101699.97;5032062;28;20115;-69
2023/12/14 08:53:06;;;;;;;17.52;6.18;;;;;;;4.63;100.00;101703.44;5045189;28;20033;-69
2023/12/14 08:55:31;;;;;;;16.55;6.68;;;;;;;4.60;100.00;101701.91;5045603;28;20415;-70
2023/12/14 08:57:57;;;;;;;14.18;6.75;;;;;;;4.63;100.00;101718.47;5032701;28;20038;-70
2023/12/14 09:00:23;;;;;;;13.73;6.03;;;;;;;4.60;100.00;101720.38;5040334;28;20017;-70
2023/12/14 09:02:49;;;;;;;18.50;7.55;;;;;;;4.57;100.00;101733.88;5045245;28;20103;-70
2023/12/14 09:05:16;;;;;;;13.07;5.68;;;;;;;4.54;100.00;101734.16;5041061;28;20599;-70
2023/12/14 09:07:41;;;;;;;18.27;7.57;;;;;;;4.49;100.00;101715.22;5029582;28;20516;-71
2023/12/14 09:10:07;;;;;;;15.48;5.68;;;;;;;4.54;100.00;101722.75;5048635;28;20029;-72
2023/12/14 09:12:34;;;;;;;14.60;6.53;;;;;;;4.52;100.00;101720.25;5049110;28;20036;-72
2023/12/14 09:14:59;;;;;;;17.63;6.40;;;;;;;4.53;100.00;101737.78;5041475;28;20030;-75
2023/12/14 09:17:25;;;;;;;13.32;6.25;;;;;;;4.53;100.00;101748.34;5031924;28;20095;-75
2023/12/14 09:19:50;;;;;;;15.02;6.97;;;;;;;4.51;100.00;101750.28;5031863;28;20029;-75
2023/12/14 09:22:16;;;;;;;14.80;5.65;;;;;;;4.55;100.00;101758.75;5013681;28;20037;-75
2023/12/14 09:24:41;;;;;;;17.73;6.20;;;;;;;4.50;100.00;101756.50;5017238;28;20113;-75
2023/12/14 09:27:06;;;;;;;17.38;7.20;;;;;;;4.51;100.00;101770.59;5014929;28;20029;-74
2023/12/14 09:29:32;;;;;;;17.42;6.63;;;;;;;4.45;100.00;101769.28;5048665;28;20033;-73
2023/12/14 09:31:57;;;;;;;17.63;7.00;;;;;;;4.57;100.00;101777.97;5048356;28;20031;-72
2023/12/14 09:34:22;;;;;;;17.00;7.03;;;;;;;4.53;100.00;101780.03;5048855;28;20029;-73
2023/12/14 09:36:48;;;;;;;18.35;6.18;;;;;;;4.58;100.00;101784.91;5030812;28;20110;-72
2023/12/14 09:39:15;;;;;;;16.73;5.78;;;;;;;4.60;100.00;101793.53;5048630;28;20053;-72
2023/12/14 09:41:40;;;;;;;14.48;5.82;;;;;;;4.51;100.00;101781.97;5048812;28;20052;-73
2023/12/14 09:44:06;;;;;;;14.68;5.72;;;;;;;4.61;100.00;101795.19;5048224;28;20029;-73
2023/12/14 09:46:35;;;;;;;14.45;5.72;;;;;;;4.62;100.00;101804.81;5030841;28;20029;-74
2023/12/14 09:49:02;;;;;;;15.60;6.10;;;;;;;4.62;100.00;101804.81;5048575;28;20028;-73
2023/12/14 09:51:27;;;;;;;17.98;7.53;;;;;;;4.60;100.00;101807.56;5048172;28;20086;-73
2023/12/14 09:53:57;;;;;;;13.85;5.45;;;;;;;4.58;100.00;101811.31;5048564;28;20032;-73
2023/12/14 09:56:24;;;;;;;14.63;5.45;;;;;;;4.59;100.00;101813.84;5047695;28;20025;-73
2023/12/14 09:58:49;;;;;;;15.27;5.93;;;;;;;4.58;100.00;101820.09;5048216;28;20037;-74
2023/12/14 10:01:24;;;;;;;12.45;5.07;;;;;;;4.57;100.00;101828.16;5048321;28;20087;-74
2023/12/14 10:03:50;;;;;;;16.45;5.57;;;;;;;4.58;100.00;101845.66;5031662;28;20480;-74
2023/12/14 10:06:15;;;;;;;17.05;6.13;;;;;;;4.57;100.00;101838.72;5049886;28;20032;-74
2023/12/14 10:08:40;;;;;;;15.35;6.03;;;;;;;4.59;100.00;101848.19;5047816;28;20111;-74
2023/12/14 10:11:16;;;;;;;16.10;6.20;;;;;;;4.58;100.00;101850.94;5030491;28;20083;-74
2023/12/14 10:13:41;;;;;;;14.95;5.30;;;;;;;4.56;100.00;101847.63;5030823;28;20083;-74
2023/12/14 10:16:07;;;;;;;16.00;6.22;;;;;;;4.61;100.00;101850.69;5012577;28;20022;-73
2023/12/14 10:18:36;;;;;;;14.05;6.45;;;;;;;4.61;100.00;101853.31;5037559;28;20037;-74
2023/12/14 10:21:01;;;;;;;14.90;6.55;;;;;;;4.62;100.00;101868.22;5013921;28;20099;-75
2023/12/14 10:23:27;;;;;;;14.68;4.95;;;;;;;4.61;100.00;101871.81;5014566;28;20492;-75
2023/12/14 10:25:53;;;;;;;15.13;6.03;;;;;;;4.54;100.00;101857.47;5030490;28;20358;-75
2023/12/14 10:28:18;;;;;;;17.48;7.65;;;;;;;4.58;100.00;101872.09;4996147;28;20175;-75
2023/12/14 10:30:44;;;;;;;15.65;6.10;;;;;;;4.54;100.00;101882.09;5030465;28;20484;-76
2023/12/14 10:33:09;;;;;;;17.35;6.55;;;;;;;4.49;100.00;101875.53;5030558;28;20120;-75
2023/12/14 10:35:35;;;;;;;16.45;5.72;;;;;;;4.54;100.00;101887.38;5049519;28;20120;-75
2023/12/14 10:38:05;;;;;;;13.43;5.60;;;;;;;4.52;100.00;101877.91;5031893;28;20048;-75
2023/12/14 10:40:36;;;;;;;12.93;5.82;;;;;;;4.53;100.00;101874.28;5031717;28;20078;-75
2023/12/14 10:43:03;;;;;;;15.40;6.30;;;;;;;4.56;100.00;101882.81;5031617;28;20524;-75
2023/12/14 10:45:32;;;;;;;16.70;7.18;;;;;;;4.63;100.00;101879.63;5030154;28;20033;-75
2023/12/14 10:48:00;;;;;;;18.63;6.93;;;;;;;4.66;100.00;101884.63;5012944;28;20061;-75
2023/12/14 10:50:28;;;;;;;16.88;6.40;;;;;;;4.70;100.00;101878.97;5012217;28;20037;-75
2023/12/14 10:52:54;;;;;;;11.98;5.00;;;;;;;4.75;100.00;101883.84;5030223;28;20033;-76
2023/12/14 10:55:27;;;;;;;14.38;5.40;;;;;;;4.72;100.00;101884.97;5029929;28;20858;-75
2023/12/14 10:57:53;;;;;;;13.05;5.55;;;;;;;4.70;100.00;101883.41;5042019;28;20024;-75
2023/12/14 11:00:18;;;;;;;14.27;5.57;;;;;;;4.70;100.00;101875.50;5030944;28;20503;-75
2023/12/14 11:02:47;;;;;;;16.05;5.97;;;;;;;4.69;100.00;101887.00;5048825;28;20033;-75
2023/12/14 11:05:16;;;;;;;16.25;7.85;;;;;;;4.70;100.00;101899.28;5024029;28;20117;-76
2023/12/14 11:07:45;;;;;;;15.05;5.68;;;;;;;4.67;100.00;101897.72;5040210;28;20098;-76
2023/12/14 11:10:14;;;;;;;15.10;5.88;;;;;;;4.63;100.00;101904.22;5048900;28;20035;-75